createdAt,value
2019-05-16T00:32:08.491Z,0.00
2019-05-16T00:33:08.315Z,0.00
2019-05-16T00:34:15.583Z,0.00
2019-05-16T00:36:10.771Z,0.00
2019-05-16T00:37:22.912Z,0.00
2019-05-16T00:39:15.116Z,0.00
2019-05-16T00:40:15.063Z,0.00
2019-05-16T00:42:19.975Z,0.00
2019-05-16T00:45:49.791Z,0.00
2019-05-16T00:48:22.225Z,0.00
2019-05-16T00:49:21.811Z,0.00
2019-05-16T00:50:21.724Z,0.00
2019-05-16T00:51:22.337Z,0.00
2019-05-16T00:52:21.648Z,0.00
2019-05-16T00:53:21.603Z,0.00
2019-05-16T00:54:21.566Z,0.00
2019-05-16T00:55:21.520Z,0.00
2019-05-16T00:58:28.410Z,0.00
2019-05-16T00:59:35.085Z,0.00
2019-05-16T01:01:30.276Z,0.00
2019-05-16T01:02:30.164Z,0.00
2019-05-16T01:03:30.128Z,0.00
2019-05-16T01:04:30.604Z,0.00
2019-05-16T01:05:30.529Z,0.00
2019-05-16T01:06:30.003Z,0.00
2019-05-16T01:07:29.966Z,0.00
2019-05-16T01:08:29.918Z,0.00
2019-05-16T01:09:39.058Z,0.00
2019-05-16T01:11:34.366Z,0.00
2019-05-16T01:12:34.331Z,0.00
2019-05-16T01:13:34.192Z,0.00
2019-05-16T01:14:34.634Z,0.00
2019-05-16T01:15:34.562Z,0.00
2019-05-16T01:16:34.068Z,0.00
2019-05-16T01:17:34.042Z,0.00
2019-05-16T01:18:33.985Z,0.00
2019-05-16T01:19:33.944Z,0.00
2019-05-16T01:20:33.907Z,0.00
2019-05-16T01:21:33.870Z,0.00
2019-05-16T01:22:33.829Z,0.00
2019-05-16T01:23:33.790Z,0.00
2019-05-16T01:24:33.753Z,0.00
2019-05-16T01:25:33.705Z,0.00
2019-05-16T01:26:33.666Z,0.00
2019-05-16T01:27:42.806Z,0.00
2019-05-16T01:29:38.646Z,0.00
2019-05-16T01:30:39.043Z,0.00
2019-05-16T01:31:38.084Z,0.00
2019-05-16T01:32:48.930Z,0.00
2019-05-16T01:34:42.889Z,0.00
2019-05-16T01:37:14.818Z,0.00
2019-05-16T01:38:24.477Z,0.00
2019-05-16T01:40:19.719Z,0.00
2019-05-16T01:41:28.490Z,0.00
2019-05-16T01:43:23.488Z,0.00
2019-05-16T01:44:23.009Z,0.00
2019-05-16T01:47:28.854Z,0.00
2019-05-16T01:48:29.258Z,0.00
2019-05-16T01:49:28.231Z,0.00
2019-05-16T01:50:28.358Z,0.00
2019-05-16T01:51:28.852Z,0.00
2019-05-16T01:52:28.947Z,0.00
2019-05-16T01:53:27.861Z,0.00
2019-05-16T01:54:28.437Z,0.00
2019-05-16T01:55:28.548Z,0.00
2019-05-16T01:56:28.103Z,0.00
2019-05-16T01:57:28.257Z,0.00
2019-05-16T02:00:37.267Z,0.00
2019-05-16T02:01:32.180Z,0.00
2019-05-16T02:02:40.386Z,0.00
2019-05-16T02:04:44.382Z,0.00
2019-05-16T02:05:38.552Z,0.00
2019-05-16T02:08:08.959Z,0.00
2019-05-16T02:09:08.049Z,0.00
2019-05-16T02:11:48.157Z,0.00
2019-05-16T02:12:48.813Z,0.00
2019-05-16T02:13:48.469Z,0.00
2019-05-16T02:14:48.105Z,0.00
2019-05-16T02:15:48.648Z,0.00
2019-05-16T02:16:47.726Z,0.00
2019-05-16T02:17:48.300Z,0.00
2019-05-16T02:18:48.673Z,0.00
2019-05-16T02:19:48.386Z,0.00
2019-05-16T02:20:47.963Z,0.00
2019-05-16T02:21:47.641Z,0.00
2019-05-16T02:22:55.389Z,0.00
2019-05-16T02:24:58.818Z,0.00
2019-05-16T02:25:51.613Z,0.00
2019-05-16T02:26:52.417Z,0.00
2019-05-16T02:27:50.963Z,0.00
2019-05-16T02:28:51.475Z,0.00
2019-05-16T02:29:50.926Z,0.00
2019-05-16T02:30:51.389Z,0.00
2019-05-16T02:31:51.566Z,0.00
2019-05-16T02:32:52.221Z,0.00
2019-05-16T02:33:51.081Z,0.00
2019-05-16T02:34:51.425Z,0.00
2019-05-16T02:35:54.723Z,0.00
2019-05-16T02:37:10.617Z,0.00
2019-05-16T02:37:54.761Z,0.00
2019-05-16T02:40:55.534Z,0.00
2019-05-16T02:41:54.458Z,0.00
2019-05-16T02:42:56.196Z,0.00
2019-05-16T02:43:54.374Z,0.00
2019-05-16T02:44:54.800Z,0.00
2019-05-16T02:45:55.264Z,0.00
2019-05-16T02:47:03.227Z,0.00
2019-05-16T02:49:00.837Z,0.00
2019-05-16T02:50:00.818Z,0.00
2019-05-16T02:51:01.580Z,0.00
2019-05-16T02:52:01.181Z,0.00
2019-05-16T02:53:01.369Z,0.00
2019-05-16T02:54:01.164Z,0.00
2019-05-16T02:55:00.856Z,0.00
2019-05-16T02:56:01.150Z,0.00
2019-05-16T02:57:01.179Z,0.00
2019-05-16T02:58:00.816Z,0.00
2019-05-16T02:59:01.427Z,0.00
2019-05-16T03:00:01.245Z,0.00
2019-05-16T03:01:01.441Z,0.00
2019-05-16T03:02:00.635Z,0.00
2019-05-16T03:03:00.983Z,0.00
2019-05-16T03:03:58.002Z,0.00
2019-05-16T03:05:00.648Z,0.00
2019-05-16T03:06:01.049Z,0.00
2019-05-16T03:07:00.406Z,0.00
2019-05-16T03:08:01.041Z,0.00
2019-05-16T03:08:57.795Z,0.00
2019-05-16T03:10:01.162Z,0.00
2019-05-16T03:11:00.754Z,0.00
2019-05-16T03:11:57.676Z,0.00
2019-05-16T03:13:00.577Z,0.00
2019-05-16T03:14:00.396Z,0.00
2019-05-16T03:15:10.698Z,0.00
2019-05-16T03:17:01.995Z,4.00
2019-05-16T03:18:11.497Z,4.00
2019-05-16T03:20:10.556Z,4.00
2019-05-16T03:21:16.989Z,4.00
2019-05-16T03:37:25.076Z,20.00
2019-05-16T03:38:21.497Z,24.00
2019-05-16T03:39:21.303Z,28.00
2019-05-16T03:40:21.372Z,32.00
2019-05-16T03:41:21.648Z,32.00
2019-05-16T03:42:21.406Z,36.00
2019-05-16T03:43:21.774Z,36.00
2019-05-16T03:44:21.335Z,40.00
2019-05-16T03:45:21.416Z,44.00
2019-05-16T03:46:21.798Z,48.00
2019-05-16T03:47:21.885Z,52.00
2019-05-16T03:48:21.584Z,60.00
2019-05-16T03:49:21.247Z,60.00
2019-05-16T03:50:21.748Z,64.00
2019-05-16T03:51:21.505Z,72.00
2019-05-16T03:52:20.955Z,72.00
2019-05-16T03:53:21.253Z,76.00
2019-05-16T03:54:21.468Z,80.00
2019-05-16T03:55:21.328Z,84.00
2019-05-16T03:56:21.944Z,84.00
2019-05-16T03:57:21.452Z,88.00
2019-05-16T03:58:22.500Z,92.00
2019-05-16T03:59:21.573Z,100.00
2019-05-16T04:00:31.634Z,108.00
2019-05-16T04:02:25.118Z,124.00
2019-05-16T04:03:28.140Z,132.00
2019-05-16T04:04:24.501Z,140.00
2019-05-16T04:05:24.472Z,148.00
2019-05-16T04:06:25.125Z,156.00
2019-05-16T04:07:24.849Z,160.00
2019-05-16T04:08:25.565Z,164.00
2019-05-16T04:09:25.207Z,172.00
2019-05-16T04:10:24.755Z,180.00
2019-05-16T04:11:25.160Z,188.00
2019-05-16T04:12:24.618Z,196.00
2019-05-16T04:13:24.130Z,204.00
2019-05-16T04:14:24.089Z,216.00
2019-05-16T04:15:24.053Z,224.00
2019-05-16T04:16:24.010Z,240.00
2019-05-16T04:17:23.963Z,260.00
2019-05-16T04:18:23.924Z,280.00
2019-05-16T04:19:23.884Z,304.00
2019-05-16T04:20:23.840Z,316.00
2019-05-16T04:21:23.806Z,324.00
2019-05-16T04:22:23.764Z,332.00
2019-05-16T04:23:23.734Z,344.00
2019-05-16T04:24:23.683Z,352.00
2019-05-16T04:25:23.637Z,360.00
2019-05-16T04:26:23.604Z,376.00
2019-05-16T04:27:23.564Z,388.00
2019-05-16T04:28:23.520Z,396.00
2019-05-16T04:29:23.477Z,412.00
2019-05-16T04:30:23.440Z,424.00
2019-05-16T04:31:23.397Z,432.00
2019-05-16T04:32:23.357Z,448.00
2019-05-16T04:33:23.321Z,468.00
2019-05-16T04:34:23.278Z,488.00
2019-05-16T04:35:32.859Z,520.00
2019-05-16T04:37:31.104Z,584.00
2019-05-16T04:38:41.388Z,620.00
2019-05-16T04:40:32.898Z,700.00
2019-05-16T04:41:32.361Z,732.00
2019-05-16T04:42:32.293Z,768.00
2019-05-16T04:43:32.302Z,812.00
2019-05-16T04:44:32.231Z,848.00
2019-05-16T04:45:41.381Z,876.00
2019-05-16T04:47:36.746Z,936.00
2019-05-16T04:48:36.693Z,932.00
2019-05-16T04:49:36.450Z,936.00
2019-05-16T04:50:36.039Z,940.00
2019-05-16T04:51:35.977Z,952.00
2019-05-16T04:54:41.839Z,1024.00
2019-05-16T04:55:51.461Z,1080.00
2019-05-16T04:57:54.772Z,1208.00
2019-05-16T04:58:45.654Z,1300.00
2019-05-16T04:59:44.991Z,1396.00
2019-05-16T05:00:45.802Z,1496.00
2019-05-16T05:01:44.947Z,1696.00
2019-05-16T05:02:46.336Z,1904.00
2019-05-16T05:04:00.238Z,2128.00
2019-05-16T05:04:44.794Z,2332.00
2019-05-16T05:05:44.828Z,2564.00
2019-05-16T05:06:44.913Z,2724.00
2019-05-16T05:07:44.427Z,3132.00
2019-05-16T05:08:53.927Z,3420.00
2019-05-16T05:09:44.198Z,3392.00
2019-05-16T05:10:44.586Z,3324.00
2019-05-16T05:11:44.111Z,3068.00
2019-05-16T05:12:44.074Z,2656.00
2019-05-16T05:13:44.036Z,2568.00
2019-05-16T05:14:43.994Z,2496.00
2019-05-16T05:15:43.954Z,2380.00
2019-05-16T05:16:43.912Z,2288.00
2019-05-16T05:17:43.871Z,2252.00
2019-05-16T05:18:43.833Z,2184.00
2019-05-16T05:19:43.791Z,2144.00
2019-05-16T05:20:43.755Z,2144.00
2019-05-16T05:21:43.720Z,2184.00
2019-05-16T05:22:43.696Z,2192.00
2019-05-16T05:23:43.630Z,2216.00
2019-05-16T05:24:43.593Z,2236.00
2019-05-16T05:25:43.582Z,2292.00
2019-05-16T05:26:43.514Z,2272.00
2019-05-16T05:27:43.486Z,2232.00
2019-05-16T05:28:43.432Z,2248.00
2019-05-16T05:29:43.390Z,2248.00
2019-05-16T05:30:43.355Z,2192.00
2019-05-16T05:31:45.248Z,2128.00
2019-05-16T05:32:43.277Z,2100.00
2019-05-16T05:33:43.239Z,2096.00
2019-05-16T05:34:43.195Z,2092.00
2019-05-16T05:35:43.171Z,2116.00
2019-05-16T05:36:43.112Z,2136.00
2019-05-16T05:37:43.077Z,2180.00
2019-05-16T05:38:43.032Z,2312.00
2019-05-16T05:39:43.000Z,3176.00
2019-05-16T05:40:42.957Z,3060.00
2019-05-16T05:41:42.913Z,3060.00
2019-05-16T05:44:55.468Z,2696.00
2019-05-16T05:45:47.601Z,2820.00
2019-05-16T05:46:47.193Z,2932.00
2019-05-16T05:47:47.637Z,3036.00
2019-05-16T05:48:47.111Z,3152.00
2019-05-16T05:49:47.073Z,3248.00
2019-05-16T05:50:47.036Z,3264.00
2019-05-16T05:51:46.999Z,3436.00
2019-05-16T05:52:46.957Z,3808.00
2019-05-16T05:53:46.915Z,2860.00
2019-05-16T05:54:46.878Z,2748.00
2019-05-16T05:55:46.834Z,2752.00
2019-05-16T05:56:46.794Z,2584.00
2019-05-16T05:57:46.753Z,3824.00
2019-05-16T05:58:46.718Z,2596.00
2019-05-16T05:59:46.675Z,2616.00
2019-05-16T06:00:46.642Z,2676.00
2019-05-16T06:01:46.603Z,2688.00
2019-05-16T06:02:46.560Z,2772.00
2019-05-16T06:03:46.522Z,2812.00
2019-05-16T06:04:46.477Z,2800.00
2019-05-16T06:05:46.435Z,2820.00
2019-05-16T06:06:46.394Z,2796.00
2019-05-16T06:07:46.360Z,2776.00
2019-05-16T06:08:46.322Z,2804.00
2019-05-16T06:09:53.468Z,2856.00
2019-05-16T06:10:46.243Z,3032.00
2019-05-16T06:11:46.202Z,3064.00
2019-05-16T06:12:46.180Z,3184.00
2019-05-16T06:13:46.132Z,3348.00
2019-05-16T06:14:46.085Z,3408.00
2019-05-16T06:15:46.146Z,4328.00
2019-05-16T06:16:46.030Z,3556.00
2019-05-16T06:17:45.961Z,3648.00
2019-05-16T06:18:45.923Z,3700.00
2019-05-16T06:19:45.886Z,3440.00
2019-05-16T06:20:45.846Z,3448.00
2019-05-16T06:21:45.818Z,3392.00
2019-05-16T06:22:45.770Z,3428.00
2019-05-16T06:23:45.728Z,3688.00
2019-05-16T06:24:45.700Z,5712.00
2019-05-16T06:25:45.645Z,3900.00
2019-05-16T06:26:45.624Z,4084.00
2019-05-16T06:27:45.594Z,3716.00
2019-05-16T06:28:45.528Z,3864.00
2019-05-16T06:29:45.488Z,3728.00
2019-05-16T06:30:45.449Z,4040.00
2019-05-16T06:33:33.439Z,6180.00
2019-05-16T06:34:26.757Z,4108.00
2019-05-16T06:35:25.690Z,3808.00
2019-05-16T06:36:25.649Z,3912.00
2019-05-16T09:50:31.664Z,5840.00
2019-05-16T09:51:31.592Z,5932.00
2019-05-16T09:52:31.383Z,5808.00
2019-05-16T09:53:31.412Z,5580.00
2019-05-16T09:54:31.291Z,5980.00
2019-05-16T09:55:31.247Z,5816.00
2019-05-16T09:56:31.211Z,5740.00
2019-05-16T09:57:31.170Z,5972.00
2019-05-16T09:58:31.135Z,7220.00
2019-05-16T09:59:31.097Z,6584.00
2019-05-16T10:00:31.050Z,6488.00
2019-05-16T10:01:31.013Z,6016.00
2019-05-16T10:02:30.980Z,5772.00
2019-05-16T10:03:30.940Z,5940.00
2019-05-16T10:04:30.894Z,5796.00
2019-05-16T10:05:30.861Z,6260.00
2019-05-16T10:06:30.821Z,6316.00
2019-05-16T10:07:30.809Z,6392.00
2019-05-16T10:08:30.748Z,6164.00
2019-05-16T10:09:40.826Z,6140.00
2019-05-16T10:10:30.672Z,6168.00
2019-05-16T10:11:31.685Z,5996.00
2019-05-16T10:12:30.594Z,5692.00
2019-05-16T10:13:30.557Z,5372.00
2019-05-16T10:14:30.520Z,4904.00
2019-05-16T10:15:30.481Z,5216.00
2019-05-16T10:16:30.460Z,5328.00
2019-05-16T10:17:30.409Z,5672.00
2019-05-16T10:18:30.369Z,5884.00
2019-05-16T10:19:30.330Z,5816.00
2019-05-16T10:20:30.299Z,6916.00
2019-05-16T10:21:30.260Z,6188.00
2019-05-16T10:22:30.223Z,6296.00
2019-05-16T10:23:30.191Z,5988.00
2019-05-16T10:24:30.145Z,6576.00
2019-05-16T10:25:30.110Z,6596.00
2019-05-16T10:26:30.075Z,6028.00
2019-05-16T10:27:30.035Z,6468.00
2019-05-16T10:28:30.001Z,6188.00
2019-05-16T10:29:29.987Z,7324.00
2019-05-16T10:30:29.927Z,6552.00
2019-05-16T10:31:41.361Z,7024.00
2019-05-16T10:32:29.853Z,6472.00
2019-05-16T10:33:29.826Z,6268.00
2019-05-16T10:34:29.784Z,6452.00
2019-05-16T10:35:30.256Z,6628.00
2019-05-16T10:36:29.705Z,6400.00
2019-05-16T10:37:29.671Z,6384.00
2019-05-16T10:38:29.633Z,6372.00
2019-05-16T10:39:29.603Z,6524.00
2019-05-16T10:40:29.563Z,6528.00
2019-05-16T10:41:29.526Z,6380.00
2019-05-16T10:42:29.489Z,6524.00
2019-05-16T10:43:29.454Z,6748.00
2019-05-16T10:44:29.416Z,6816.00
2019-05-16T10:45:29.376Z,7040.00
2019-05-16T10:46:29.340Z,6892.00
2019-05-16T10:47:31.330Z,6868.00
2019-05-16T10:48:29.271Z,7120.00
2019-05-16T10:49:37.138Z,6968.00
2019-05-16T10:50:29.231Z,6856.00
2019-05-16T10:51:29.182Z,6856.00
2019-05-16T10:52:29.125Z,6604.00
2019-05-16T10:53:57.894Z,6588.00
2019-05-16T10:54:29.121Z,6416.00
2019-05-16T10:55:29.052Z,6208.00
2019-05-16T10:56:28.979Z,6192.00
2019-05-16T10:57:29.946Z,6256.00
2019-05-16T10:58:37.203Z,6352.00
2019-05-16T11:00:57.544Z,6420.00
2019-05-16T11:01:31.394Z,6620.00
2019-05-16T11:02:28.802Z,6092.00
2019-05-16T11:03:28.747Z,5776.00
2019-05-16T11:04:42.129Z,6120.00
2019-05-16T11:05:36.185Z,5804.00
2019-05-16T11:06:29.259Z,5904.00
2019-05-16T11:07:29.815Z,6076.00
2019-05-16T11:08:28.546Z,6468.00
2019-05-16T11:09:28.507Z,6252.00
2019-05-16T11:10:29.611Z,7736.00
2019-05-16T11:11:28.433Z,7244.00
2019-05-16T11:12:45.293Z,6280.00
2019-05-16T11:13:28.359Z,6604.00
2019-05-16T11:14:28.357Z,6096.00
2019-05-16T11:15:28.292Z,6264.00
2019-05-16T11:16:28.247Z,5924.00
2019-05-16T11:17:28.213Z,5820.00
2019-05-16T11:18:28.184Z,5852.00
2019-05-16T11:19:28.323Z,6472.00
2019-05-16T11:20:28.161Z,6844.00
2019-05-16T11:21:28.070Z,6380.00
2019-05-16T11:22:29.895Z,6432.00
2019-05-16T11:23:31.276Z,6052.00
2019-05-16T11:24:29.377Z,6484.00
2019-05-16T11:25:31.855Z,6808.00
2019-05-16T11:26:30.232Z,5576.00
2019-05-16T11:27:27.856Z,5744.00
2019-05-16T11:28:27.817Z,7076.00
2019-05-16T11:29:27.784Z,7284.00
2019-05-16T11:30:28.173Z,7492.00
2019-05-16T11:31:27.707Z,7580.00
2019-05-16T11:32:27.678Z,7528.00
2019-05-16T11:33:28.223Z,7320.00
2019-05-16T11:34:27.599Z,6804.00
2019-05-16T11:35:27.566Z,6456.00
2019-05-16T11:36:27.527Z,7260.00
2019-05-16T11:37:27.957Z,7544.00
2019-05-16T11:38:27.455Z,6844.00
2019-05-16T11:39:27.441Z,5992.00
2019-05-16T11:40:30.118Z,5780.00
2019-05-16T11:41:27.681Z,5620.00
2019-05-16T11:42:28.009Z,5704.00
2019-05-16T11:43:27.880Z,5664.00
2019-05-16T11:44:28.729Z,5392.00
2019-05-16T11:45:27.328Z,5036.00
2019-05-16T11:46:28.084Z,4964.00
2019-05-16T11:47:27.274Z,4852.00
2019-05-16T11:48:29.236Z,4248.00
2019-05-16T11:49:27.590Z,3992.00
2019-05-16T11:50:28.081Z,3768.00
2019-05-16T11:51:27.370Z,3600.00
2019-05-16T11:52:26.950Z,3528.00
2019-05-16T11:53:28.201Z,4752.00
2019-05-16T11:54:26.873Z,3780.00
2019-05-16T11:55:33.390Z,4620.00
2019-05-16T11:56:26.803Z,4904.00
2019-05-16T11:57:26.777Z,4828.00
2019-05-16T11:58:26.807Z,4876.00
2019-05-16T11:59:26.694Z,4752.00
2019-05-16T12:00:30.512Z,4368.00
2019-05-16T12:01:27.606Z,4340.00
2019-05-16T12:02:27.888Z,3908.00
2019-05-16T12:03:28.198Z,4020.00
2019-05-16T12:04:28.052Z,3936.00
2019-05-16T12:05:26.993Z,3804.00
2019-05-16T12:06:26.883Z,3804.00
2019-05-16T12:07:33.938Z,3728.00
2019-05-16T12:08:26.533Z,4288.00
2019-05-16T12:09:33.365Z,4024.00
2019-05-16T12:10:27.054Z,4340.00
2019-05-16T12:11:27.410Z,3976.00
2019-05-16T12:12:27.102Z,4320.00
2019-05-16T12:13:31.820Z,4280.00
2019-05-16T12:14:27.232Z,4312.00
2019-05-16T12:15:27.390Z,4900.00
2019-05-16T12:16:27.490Z,4560.00
2019-05-16T12:17:28.030Z,4532.00
2019-05-16T12:18:26.566Z,4408.00
2019-05-16T12:19:33.352Z,4916.00
2019-05-16T12:20:27.376Z,3752.00
2019-05-16T12:21:27.428Z,4512.00
2019-05-16T12:22:26.794Z,4732.00
2019-05-16T12:23:27.550Z,4676.00
2019-05-16T12:24:33.166Z,4616.00
2019-05-16T12:25:27.341Z,4168.00
2019-05-16T12:26:27.925Z,4580.00
2019-05-16T12:27:32.336Z,4472.00
2019-05-16T12:28:27.275Z,4488.00
2019-05-16T12:29:27.926Z,4144.00
2019-05-16T12:30:25.562Z,3848.00
2019-05-16T12:31:25.531Z,4048.00
2019-05-16T12:32:27.547Z,4200.00
2019-05-16T12:33:27.492Z,4164.00
2019-05-16T12:34:25.412Z,4156.00
2019-05-16T12:35:27.536Z,4148.00
2019-05-16T12:36:26.758Z,4140.00
2019-05-16T12:37:27.437Z,4140.00
2019-05-16T12:38:27.644Z,4140.00
2019-05-16T12:39:33.878Z,4140.00
2019-05-16T12:41:29.652Z,4060.00
2019-05-16T12:42:29.585Z,4004.00
2019-05-16T12:43:44.610Z,4168.00
2019-05-16T12:44:29.511Z,4136.00
2019-05-16T12:45:29.479Z,4136.00
2019-05-16T12:46:29.439Z,4132.00
2019-05-16T12:47:29.402Z,4132.00
2019-05-16T12:48:29.373Z,4148.00
2019-05-16T12:49:29.327Z,4132.00
2019-05-16T12:50:29.291Z,4120.00
2019-05-16T12:51:29.258Z,4140.00
2019-05-16T12:52:29.217Z,4144.00
2019-05-16T12:53:31.832Z,4132.00
2019-05-16T12:54:29.147Z,4144.00
2019-05-16T12:55:29.111Z,4132.00
2019-05-16T12:56:29.076Z,4144.00
2019-05-16T12:57:31.021Z,4156.00
2019-05-16T12:58:38.097Z,4136.00
2019-05-16T12:59:28.964Z,4144.00
2019-05-16T13:00:28.931Z,4164.00
2019-05-16T13:01:33.711Z,4164.00
2019-05-16T13:02:28.853Z,4152.00
2019-05-16T13:03:28.852Z,4152.00
2019-05-16T13:04:28.778Z,4164.00
2019-05-16T13:05:28.748Z,4164.00
2019-05-16T13:06:28.709Z,4164.00
2019-05-16T13:07:28.669Z,4148.00
2019-05-16T13:08:28.639Z,4156.00
2019-05-16T13:09:28.635Z,4144.00
2019-05-16T13:10:28.562Z,4148.00
2019-05-16T13:11:28.527Z,4164.00
2019-05-16T13:12:28.491Z,4148.00
2019-05-16T13:13:28.450Z,4156.00
2019-05-16T13:14:28.419Z,4164.00
2019-05-16T13:15:28.381Z,4156.00
2019-05-16T13:16:28.347Z,4168.00
2019-05-16T13:17:28.308Z,4168.00
2019-05-16T13:18:28.274Z,4160.00
2019-05-16T13:19:33.021Z,4188.00
2019-05-16T13:20:28.195Z,4164.00
2019-05-16T13:21:28.164Z,4148.00
2019-05-16T13:22:28.128Z,4164.00
2019-05-16T13:23:28.093Z,4176.00
2019-05-16T13:24:28.161Z,4188.00
2019-05-16T13:25:28.013Z,4180.00
2019-05-16T13:26:27.984Z,4172.00
2019-05-16T13:27:27.943Z,4180.00
2019-05-16T13:28:27.903Z,4180.00
2019-05-16T13:29:27.874Z,4164.00
2019-05-16T13:30:27.835Z,4168.00
2019-05-16T13:31:28.629Z,4236.00
2019-05-16T13:32:27.758Z,4296.00
2019-05-16T13:33:27.726Z,4296.00
2019-05-16T13:34:28.185Z,4332.00
2019-05-16T13:35:27.651Z,4352.00
2019-05-16T13:36:27.619Z,4348.00
2019-05-16T13:37:27.687Z,4364.00
2019-05-16T13:38:28.088Z,4400.00
2019-05-16T13:39:27.679Z,4424.00
2019-05-16T13:40:27.702Z,4412.00
2019-05-16T13:41:27.452Z,4424.00
2019-05-16T13:42:27.398Z,4472.00
2019-05-16T13:43:27.363Z,4484.00
2019-05-16T13:44:27.607Z,4484.00
2019-05-16T13:45:27.446Z,4452.00
2019-05-16T13:46:27.255Z,4444.00
2019-05-16T13:47:27.217Z,4468.00
2019-05-16T13:48:27.183Z,4476.00
2019-05-16T13:49:27.142Z,4496.00
2019-05-16T13:50:27.400Z,4460.00
2019-05-16T13:51:27.071Z,4516.00
2019-05-16T13:52:28.225Z,4400.00
2019-05-16T13:53:27.356Z,4364.00
2019-05-16T13:54:27.084Z,3228.00
2019-05-16T13:55:27.218Z,4476.00
2019-05-16T13:56:27.361Z,4416.00
2019-05-16T13:57:28.266Z,4376.00
2019-05-16T13:58:28.301Z,4364.00
2019-05-16T13:59:28.040Z,4368.00
2019-05-16T14:00:27.930Z,4392.00
2019-05-16T14:01:27.762Z,4392.00
2019-05-16T14:02:26.814Z,4368.00
2019-05-16T14:03:27.686Z,4356.00
2019-05-16T14:04:26.612Z,4352.00
2019-05-16T14:05:26.862Z,4384.00
2019-05-16T14:06:26.533Z,4424.00
2019-05-16T14:07:26.499Z,4484.00
2019-05-16T14:08:26.822Z,3340.00
2019-05-16T14:09:26.812Z,3412.00
2019-05-16T14:10:29.631Z,4488.00
2019-05-16T14:11:26.351Z,4864.00
2019-05-16T14:12:26.778Z,4920.00
2019-05-16T14:13:27.923Z,4996.00
2019-05-16T14:14:37.166Z,5024.00
2019-05-16T14:15:27.067Z,5060.00
2019-05-16T14:16:26.955Z,5068.00
2019-05-16T14:17:27.468Z,4756.00
2019-05-16T14:18:27.270Z,3476.00
2019-05-16T14:19:27.459Z,3308.00
2019-05-16T14:20:26.031Z,3284.00
2019-05-16T14:21:25.995Z,3268.00
2019-05-16T14:22:27.784Z,3384.00
2019-05-16T14:23:28.082Z,4844.00
2019-05-16T14:24:28.156Z,4040.00
2019-05-16T14:25:25.855Z,3860.00
2019-05-16T14:26:25.816Z,3100.00
2019-05-16T14:27:26.856Z,2904.00
2019-05-16T14:28:25.749Z,2884.00
2019-05-16T14:29:27.836Z,2980.00
2019-05-16T14:30:28.312Z,3120.00
2019-05-16T14:31:25.635Z,3188.00
2019-05-16T14:32:25.601Z,3252.00
2019-05-16T14:33:27.483Z,3356.00
2019-05-16T14:34:27.903Z,3536.00
2019-05-16T14:35:26.777Z,5008.00
2019-05-16T14:36:27.770Z,4896.00
2019-05-16T14:37:26.872Z,3792.00
2019-05-16T14:38:26.956Z,4476.00
2019-05-16T14:39:28.349Z,4748.00
2019-05-16T14:40:27.701Z,3772.00
2019-05-16T14:41:27.715Z,3800.00
2019-05-16T14:42:27.820Z,3816.00
2019-05-16T14:43:27.120Z,4056.00
2019-05-16T14:44:28.379Z,4784.00
2019-05-16T14:45:26.366Z,5876.00
2019-05-16T14:46:27.262Z,5488.00
2019-05-16T14:47:27.231Z,4444.00
2019-05-16T14:48:27.570Z,4632.00
2019-05-16T14:49:28.434Z,5048.00
2019-05-16T14:50:27.532Z,4756.00
2019-05-16T14:51:29.334Z,4892.00
2019-05-16T14:52:26.974Z,4888.00
2019-05-16T14:53:28.199Z,4584.00
2019-05-16T14:54:26.786Z,4568.00
2019-05-16T14:55:27.305Z,4500.00
2019-05-16T14:56:27.334Z,4324.00
2019-05-16T14:57:27.200Z,4124.00
2019-05-16T14:58:30.348Z,3900.00
2019-05-16T14:59:26.850Z,3712.00
2019-05-16T15:00:27.402Z,3536.00
2019-05-16T15:01:26.587Z,3516.00
2019-05-16T15:02:27.296Z,3620.00
2019-05-16T15:03:27.131Z,3496.00
2019-05-16T15:04:29.813Z,3676.00
2019-05-16T15:05:24.433Z,3288.00
2019-05-16T15:06:24.383Z,3236.00
2019-05-16T15:07:24.349Z,3292.00
2019-05-16T15:08:24.313Z,3444.00
2019-05-16T15:09:24.280Z,4244.00
2019-05-16T15:10:24.241Z,4056.00
2019-05-16T15:11:24.205Z,3900.00
2019-05-16T15:12:26.644Z,3660.00
2019-05-16T15:13:24.132Z,3480.00
2019-05-16T15:14:24.096Z,3312.00
2019-05-16T15:15:27.403Z,3300.00
2019-05-16T15:16:24.025Z,3476.00
2019-05-16T15:17:23.994Z,3560.00
2019-05-16T15:18:23.965Z,3416.00
2019-05-16T15:19:23.922Z,3284.00
2019-05-16T15:20:23.886Z,3248.00
2019-05-16T15:21:23.845Z,3288.00
2019-05-16T15:34:47.694Z,2852.00
2019-05-16T15:35:47.119Z,2836.00
2019-05-16T15:36:46.653Z,2856.00
2019-05-16T15:37:48.429Z,2816.00
2019-05-16T15:38:47.220Z,2736.00
2019-05-16T15:39:47.556Z,2632.00
2019-05-16T15:40:48.035Z,2488.00
2019-05-16T15:41:45.909Z,2332.00
2019-05-16T15:42:45.871Z,2208.00
2019-05-16T15:43:45.836Z,2036.00
2019-05-16T15:44:45.797Z,1792.00
2019-05-16T15:45:52.027Z,1604.00
2019-05-16T15:46:47.650Z,1492.00
2019-05-16T15:47:45.695Z,1412.00
2019-05-16T15:48:48.570Z,1356.00
2019-05-16T15:49:47.575Z,1332.00
2019-05-16T15:50:45.575Z,1364.00
2019-05-16T15:51:45.533Z,1436.00
2019-05-16T15:52:45.498Z,1484.00
2019-05-16T15:53:45.474Z,1512.00
2019-05-16T15:54:45.422Z,1548.00
2019-05-16T15:55:47.059Z,1600.00
2019-05-16T15:56:46.702Z,1652.00
2019-05-16T15:57:47.283Z,1736.00
2019-05-16T15:58:46.688Z,1852.00
2019-05-16T15:59:46.947Z,2000.00
2019-05-16T16:00:48.111Z,2152.00
2019-05-16T16:01:47.395Z,2328.00
2019-05-16T16:02:45.134Z,2484.00
2019-05-16T16:03:47.200Z,2636.00
2019-05-16T16:04:47.579Z,2736.00
2019-05-16T16:05:45.020Z,2780.00
2019-05-16T16:06:47.219Z,2796.00
2019-05-16T16:07:44.949Z,2900.00
2019-05-16T16:08:46.956Z,3012.00
2019-05-16T16:09:46.981Z,3072.00
2019-05-16T16:10:47.511Z,3108.00
2019-05-16T16:11:44.800Z,3116.00
2019-05-16T16:12:44.765Z,3112.00
2019-05-16T16:13:44.727Z,3088.00
2019-05-16T16:14:46.589Z,2992.00
2019-05-16T16:15:53.268Z,2908.00
2019-05-16T16:16:46.354Z,2904.00
2019-05-16T16:17:46.491Z,2912.00
2019-05-16T16:18:46.698Z,2880.00
2019-05-16T16:19:46.775Z,2824.00
2019-05-16T16:20:47.572Z,2780.00
2019-05-16T16:21:47.077Z,2752.00
2019-05-16T16:22:46.733Z,2712.00
2019-05-16T16:23:47.126Z,2652.00
2019-05-16T16:24:47.528Z,2608.00
2019-05-16T16:25:49.650Z,2576.00
2019-05-16T16:26:44.253Z,2424.00
2019-05-16T16:27:44.219Z,2232.00
2019-05-16T16:28:44.178Z,2080.00
2019-05-16T16:29:44.142Z,1980.00
2019-05-16T16:30:44.109Z,1948.00
2019-05-16T16:31:44.068Z,1940.00
2019-05-16T16:32:44.032Z,1920.00
2019-05-16T16:33:44.003Z,1860.00
2019-05-16T16:34:43.961Z,1780.00
2019-05-16T16:35:43.923Z,1676.00
2019-05-16T16:36:43.882Z,1572.00
2019-05-16T16:37:43.848Z,1508.00
2019-05-16T16:38:43.806Z,1480.00
2019-05-16T16:39:43.775Z,1496.00
2019-05-16T16:40:43.738Z,1556.00
2019-05-16T16:41:43.701Z,1640.00
2019-05-16T16:42:43.664Z,1692.00
2019-05-16T16:43:43.622Z,1700.00
2019-05-16T16:44:43.590Z,1712.00
2019-05-16T16:45:43.553Z,1748.00
2019-05-16T16:46:43.517Z,1756.00
2019-05-16T16:47:43.479Z,1748.00
2019-05-16T16:48:43.441Z,1712.00
2019-05-16T16:49:43.418Z,1708.00
2019-05-16T16:50:43.365Z,1768.00
2019-05-16T16:51:43.333Z,1860.00
2019-05-16T16:52:43.293Z,1972.00
2019-05-16T16:53:43.256Z,2080.00
2019-05-16T16:54:43.228Z,2144.00
2019-05-16T16:55:43.185Z,2224.00
2019-05-16T16:56:43.150Z,2252.00
2019-05-16T16:57:43.117Z,2292.00
2019-05-16T16:58:43.068Z,2352.00
2019-05-16T16:59:43.037Z,2380.00
2019-05-16T17:00:42.998Z,2388.00
2019-05-16T17:01:42.961Z,2364.00
2019-05-16T17:02:58.456Z,2300.00
2019-05-16T17:03:42.882Z,2128.00
2019-05-16T17:04:42.854Z,1796.00
2019-05-16T17:05:42.815Z,1440.00
2019-05-16T17:06:42.779Z,1228.00
2019-05-16T17:07:42.735Z,1100.00
2019-05-16T17:08:42.700Z,1024.00
2019-05-16T17:09:42.665Z,980.00
2019-05-16T17:10:42.625Z,972.00
2019-05-16T17:11:42.592Z,976.00
2019-05-16T17:12:42.725Z,968.00
2019-05-16T17:13:42.529Z,928.00
2019-05-16T17:14:42.480Z,888.00
2019-05-16T17:15:42.440Z,872.00
2019-05-16T17:16:42.403Z,872.00
2019-05-16T17:17:42.371Z,864.00
2019-05-16T17:18:42.332Z,816.00